Time;durP1;ratioP1;P1;durP2;ratioP2;P2;SDS_P1;SDS_P2;PMS_P1;PMS_P2;Temp;Humidity;BMP_temperature;BMP_pressure;BME280_temperature;BME280_humidity;BME280_pressure;Samples;Min_cycle;Max_cycle;Signal;HPM_P1;HPM_P2
2023/12/20 00:02:07;;;;;;;9.30;4.60;;;;;;;3.77;100.00;96861.34;4985772;28;20448;-73
2023/12/20 00:04:33;;;;;;;7.55;3.97;;;;;;;3.83;100.00;96873.63;4994986;28;20085;-76
2023/12/20 00:06:58;;;;;;;5.82;3.88;;;;;;;3.89;100.00;96882.41;4991621;28;20058;-74
2023/12/20 00:09:24;;;;;;;7.32;4.10;;;;;;;3.77;100.00;96874.09;4981911;28;20046;-75
2023/12/20 00:11:49;;;;;;;5.53;3.63;;;;;;;3.75;100.00;96887.97;4996474;28;20099;-73
2023/12/20 00:14:15;;;;;;;7.97;3.92;;;;;;;3.67;100.00;96886.03;4977998;28;20061;-75
2023/12/20 00:16:41;;;;;;;7.70;4.18;;;;;;;3.74;100.00;96859.25;4990492;28;20046;-74
2023/12/20 00:19:07;;;;;;;6.20;4.00;;;;;;;3.74;100.00;96867.38;4990849;28;20049;-76
2023/12/20 00:21:32;;;;;;;6.60;4.45;;;;;;;3.81;100.00;96872.34;4997976;28;20046;-75
2023/12/20 00:23:58;;;;;;;9.30;4.53;;;;;;;3.80;100.00;96870.75;4989091;28;20045;-75
2023/12/20 00:26:23;;;;;;;6.40;4.40;;;;;;;3.81;100.00;96856.09;4982099;28;20730;-73
2023/12/20 00:28:48;;;;;;;7.65;4.00;;;;;;;3.76;100.00;96840.81;4993380;28;20459;-74
2023/12/20 00:31:14;;;;;;;6.93;4.22;;;;;;;3.73;100.00;96840.63;4989405;28;20062;-75
2023/12/20 00:33:43;;;;;;;7.35;4.57;;;;;;;3.83;100.00;96843.00;4989113;28;20049;-75
2023/12/20 00:36:08;;;;;;;6.93;4.13;;;;;;;3.72;100.00;96834.41;4985023;28;20446;-75
2023/12/20 00:38:34;;;;;;;7.20;4.72;;;;;;;3.78;100.00;96843.16;4996016;28;20063;-75
2023/12/20 00:40:59;;;;;;;7.88;4.65;;;;;;;3.70;100.00;96846.69;4982680;28;20503;-75
2023/12/20 00:43:25;;;;;;;9.00;5.65;;;;;;;3.71;100.00;96838.25;5003558;28;20388;-75
2023/12/20 00:45:50;;;;;;;7.63;4.65;;;;;;;3.70;100.00;96838.56;5000986;28;20172;-73
2023/12/20 00:48:16;;;;;;;6.75;4.03;;;;;;;3.80;100.00;96839.03;4983898;28;20042;-75
2023/12/20 00:50:41;;;;;;;7.30;4.68;;;;;;;3.77;100.00;96830.75;4990492;28;20050;-74
2023/12/20 00:53:06;;;;;;;7.05;4.32;;;;;;;3.87;100.00;96835.84;4981175;28;20081;-74
2023/12/20 00:55:32;;;;;;;7.70;4.55;;;;;;;3.87;100.00;96830.44;5002727;28;20038;-73
2023/12/20 00:57:59;;;;;;;8.52;4.90;;;;;;;3.87;100.00;96835.03;4989504;28;20047;-74
2023/12/20 01:00:24;;;;;;;7.00;4.45;;;;;;;3.82;100.00;96827.88;4983505;28;20057;-73
2023/12/20 01:02:51;;;;;;;6.95;4.65;;;;;;;3.81;100.00;96816.22;4989715;28;20045;-73
2023/12/20 01:05:18;;;;;;;6.30;4.25;;;;;;;3.89;100.00;96820.06;4977611;28;20034;-72
2023/12/20 01:07:43;;;;;;;7.05;4.60;;;;;;;3.87;100.00;96805.22;4984100;28;20051;-71
2023/12/20 01:10:09;;;;;;;6.72;4.30;;;;;;;4.02;100.00;96807.47;4979040;28;20050;-72
2023/12/20 01:12:36;;;;;;;7.85;5.20;;;;;;;4.00;100.00;96796.94;4983186;28;20088;-72
2023/12/20 01:15:01;;;;;;;8.52;5.07;;;;;;;4.07;100.00;96796.47;4991192;28;20157;-71
2023/12/20 01:17:26;;;;;;;7.32;4.85;;;;;;;3.92;100.00;96791.53;4972517;28;20479;-72
2023/12/20 01:19:52;;;;;;;7.72;4.82;;;;;;;3.94;100.00;96795.53;4978944;28;20046;-72
2023/12/20 01:22:17;;;;;;;8.18;5.50;;;;;;;3.95;100.00;96799.81;4979106;28;20050;-72
2023/12/20 01:24:43;;;;;;;7.00;4.15;;;;;;;3.96;100.00;96795.19;4988050;28;20077;-72
2023/12/20 01:27:08;;;;;;;7.30;5.13;;;;;;;3.93;100.00;96798.56;4981530;28;20128;-72
2023/12/20 01:29:33;;;;;;;7.97;4.93;;;;;;;3.96;100.00;96787.88;4981969;28;20078;-72
2023/12/20 01:31:59;;;;;;;8.38;5.00;;;;;;;3.93;100.00;96802.06;4983124;28;20046;-72
2023/12/20 01:34:24;;;;;;;6.93;5.03;;;;;;;3.87;100.00;96807.94;4983098;28;20149;-72
2023/12/20 01:36:50;;;;;;;8.38;4.90;;;;;;;3.81;100.00;96807.31;4983205;28;20081;-72
2023/12/20 01:39:15;;;;;;;7.18;4.78;;;;;;;3.83;100.00;96797.78;4986264;28;20592;-71
2023/12/20 01:41:40;;;;;;;8.02;4.85;;;;;;;3.96;100.00;96804.13;5006425;28;20581;-73
2023/12/20 01:44:06;;;;;;;7.93;4.82;;;;;;;4.26;100.00;96789.88;4995842;28;20054;-73
2023/12/20 01:46:31;;;;;;;6.35;4.40;;;;;;;4.28;100.00;96793.06;5011966;28;20046;-73
2023/12/20 01:48:57;;;;;;;7.88;5.03;;;;;;;4.18;100.00;96795.00;5009970;28;20463;-72
2023/12/20 01:51:23;;;;;;;8.05;4.82;;;;;;;4.01;100.00;96797.72;4993212;28;20501;-72
2023/12/20 01:53:49;;;;;;;8.43;4.97;;;;;;;3.89;100.00;96811.13;4991921;28;20050;-70
2023/12/20 01:56:16;;;;;;;7.00;4.45;;;;;;;3.80;100.00;96811.94;5011602;28;20478;-71
2023/12/20 01:58:46;;;;;;;9.30;5.13;;;;;;;3.88;100.00;96810.34;4985963;28;20138;-71
2023/12/20 02:01:12;;;;;;;21.70;11.90;;;;;;;3.83;100.00;96805.91;4986675;28;20128;-70
2023/12/20 02:03:38;;;;;;;8.75;5.47;;;;;;;3.83;100.00;96796.94;4999801;28;20116;-71
2023/12/20 02:06:05;;;;;;;10.68;5.05;;;;;;;3.78;100.00;96789.78;4996310;28;20037;-72
2023/12/20 02:08:30;;;;;;;8.07;5.43;;;;;;;3.75;100.00;96793.13;4993202;28;20089;-72
2023/12/20 02:10:56;;;;;;;8.45;5.05;;;;;;;3.77;100.00;96792.81;4999780;28;20081;-72
2023/12/20 02:13:21;;;;;;;8.48;5.43;;;;;;;3.75;100.00;96795.84;4996353;28;20049;-73
2023/12/20 02:15:47;;;;;;;7.32;4.72;;;;;;;3.75;100.00;96800.47;4989880;28;20042;-72
2023/12/20 02:18:15;;;;;;;7.82;5.00;;;;;;;3.76;100.00;96802.06;4983990;28;20101;-73
2023/12/20 02:20:41;;;;;;;11.27;5.85;;;;;;;3.77;100.00;96804.44;4997327;28;20046;-72
2023/12/20 02:23:06;;;;;;;8.32;4.80;;;;;;;3.88;100.00;96809.56;5000947;28;20090;-72
2023/12/20 02:25:31;;;;;;;9.95;5.40;;;;;;;4.00;100.00;96785.31;5026256;28;20058;-72
2023/12/20 02:27:57;;;;;;;8.20;5.03;;;;;;;3.88;100.00;96783.25;4982301;28;20042;-72
2023/12/20 02:30:22;;;;;;;8.88;5.78;;;;;;;3.90;100.00;96789.13;4977811;28;20485;-72
2023/12/20 02:32:49;;;;;;;9.27;5.55;;;;;;;3.93;100.00;96780.38;4984226;28;20038;-73
2023/12/20 02:35:15;;;;;;;7.45;5.03;;;;;;;4.05;100.00;96778.91;4976227;28;20088;-72
2023/12/20 02:37:40;;;;;;;9.30;5.18;;;;;;;4.06;100.00;96769.66;4988371;28;20046;-72
2023/12/20 02:40:06;;;;;;;9.82;5.47;;;;;;;4.13;100.00;96773.47;4975312;28;20039;-71
2023/12/20 02:42:32;;;;;;;8.45;4.90;;;;;;;4.09;100.00;96777.13;4980941;28;20042;-72
2023/12/20 02:44:57;;;;;;;8.43;5.20;;;;;;;4.31;100.00;96776.94;4988218;28;20056;-73
2023/12/20 02:47:23;;;;;;;8.23;5.20;;;;;;;4.43;100.00;96765.41;4979807;28;20535;-71
2023/12/20 02:49:49;;;;;;;10.32;5.40;;;;;;;4.34;100.00;96768.16;4990290;28;20045;-72
2023/12/20 02:52:14;;;;;;;8.32;5.50;;;;;;;4.24;100.00;96770.44;4984265;28;20445;-70
2023/12/20 02:54:41;;;;;;;9.88;5.85;;;;;;;4.19;100.00;96771.38;4984449;28;20050;-73
2023/12/20 02:57:06;;;;;;;11.32;6.03;;;;;;;4.21;100.00;96766.44;4987643;28;20112;-70
2023/12/20 02:59:32;;;;;;;10.85;5.80;;;;;;;4.16;100.00;96772.03;4997177;28;20348;-70
2023/12/20 03:01:57;;;;;;;9.30;5.80;;;;;;;4.06;100.00;96767.75;4981827;28;20050;-71
2023/12/20 03:04:22;;;;;;;10.55;6.30;;;;;;;3.88;100.00;96774.31;4975527;28;20111;-71
2023/12/20 03:06:48;;;;;;;10.90;5.80;;;;;;;3.87;100.00;96772.72;4993549;28;20046;-72
2023/12/20 03:09:13;;;;;;;10.10;6.25;;;;;;;3.82;100.00;96774.50;4993134;28;20054;-71
2023/12/20 03:11:39;;;;;;;10.07;6.22;;;;;;;3.89;100.00;96774.00;5008047;28;20084;-71
2023/12/20 03:14:04;;;;;;;10.57;6.07;;;;;;;3.89;100.00;96775.91;4983237;28;20138;-75
2023/12/20 03:16:31;;;;;;;11.23;6.82;;;;;;;3.89;100.00;96778.59;4991380;28;20058;-72
2023/12/20 03:18:56;;;;;;;11.65;6.60;;;;;;;3.85;100.00;96781.16;4991440;28;20136;-71
2023/12/20 03:21:22;;;;;;;10.90;7.00;;;;;;;3.94;100.00;96787.41;4987265;28;20631;-71
2023/12/20 03:23:47;;;;;;;11.23;6.70;;;;;;;3.99;100.00;96789.13;4990031;28;20046;-72
2023/12/20 03:26:13;;;;;;;11.63;6.45;;;;;;;4.08;100.00;96780.97;4987493;28;20076;-70
2023/12/20 03:28:38;;;;;;;10.85;6.50;;;;;;;4.09;100.00;96779.84;4991498;28;20042;-70
2023/12/20 03:31:04;;;;;;;12.07;6.93;;;;;;;3.92;100.00;96770.63;4991785;28;20053;-73
2023/12/20 03:33:30;;;;;;;11.90;7.03;;;;;;;3.98;100.00;96776.69;4989397;28;20132;-72
2023/12/20 03:35:55;;;;;;;10.10;5.90;;;;;;;4.06;100.00;96778.59;4985751;28;20187;-71
2023/12/20 03:38:21;;;;;;;10.45;6.35;;;;;;;4.11;100.00;96775.72;4987482;28;20136;-71
2023/12/20 03:40:47;;;;;;;13.18;8.07;;;;;;;4.02;100.00;96778.44;4983167;28;20408;-71
2023/12/20 03:43:12;;;;;;;13.70;6.82;;;;;;;4.02;100.00;96783.84;4986575;28;20056;-70
2023/12/20 03:45:37;;;;;;;10.55;6.82;;;;;;;4.06;100.00;96784.00;4989668;28;20361;-72
2023/12/20 03:48:03;;;;;;;11.65;6.60;;;;;;;4.02;100.00;96785.78;4983136;28;20104;-74
2023/12/20 03:50:29;;;;;;;10.20;6.28;;;;;;;4.24;100.00;96790.19;4993102;28;20060;-70
2023/12/20 03:52:54;;;;;;;11.80;6.20;;;;;;;4.18;100.00;96786.06;4986419;28;20050;-71
2023/12/20 03:55:19;;;;;;;10.23;5.97;;;;;;;4.11;100.00;96785.78;4986385;28;20057;-70
2023/12/20 03:57:45;;;;;;;13.75;6.72;;;;;;;4.01;100.00;96782.25;4989921;28;20046;-72
2023/12/20 04:00:11;;;;;;;12.20;6.63;;;;;;;3.85;100.00;96796.63;4997119;28;20110;-70
2023/12/20 04:02:41;;;;;;;11.82;6.90;;;;;;;3.89;100.00;96795.69;5003380;28;20060;-70
2023/12/20 04:05:07;;;;;;;12.73;7.93;;;;;;;3.83;100.00;96791.53;4989376;28;20046;-70
2023/12/20 04:07:32;;;;;;;11.23;7.07;;;;;;;3.81;100.00;96805.41;4993636;28;20050;-72
2023/12/20 04:09:58;;;;;;;12.57;7.70;;;;;;;3.72;100.00;96801.91;4990280;28;20050;-71
2023/12/20 04:12:24;;;;;;;14.38;8.45;;;;;;;3.57;100.00;96800.47;4987227;28;20055;-70
2023/12/20 04:14:49;;;;;;;14.23;7.95;;;;;;;3.52;100.00;96802.53;4997861;28;20452;-70
2023/12/20 04:17:17;;;;;;;13.18;9.40;;;;;;;3.50;100.00;96807.50;4983507;28;20049;-71
2023/12/20 04:19:43;;;;;;;13.45;8.45;;;;;;;3.47;100.00;96814.31;4986431;28;20405;-71
2023/12/20 04:22:08;;;;;;;16.85;9.85;;;;;;;3.44;100.00;96810.34;4980163;28;20034;-70
2023/12/20 04:24:34;;;;;;;15.32;9.15;;;;;;;3.41;100.00;96810.19;4998154;28;20064;-70
2023/12/20 04:26:59;;;;;;;15.38;9.55;;;;;;;3.49;100.00;96811.28;5003712;28;20049;-69
2023/12/20 04:29:24;;;;;;;14.50;9.20;;;;;;;3.53;100.00;96831.19;5008088;28;20069;-70
2023/12/20 04:31:51;;;;;;;16.65;10.55;;;;;;;3.45;100.00;96828.16;5004422;28;20041;-69
2023/12/20 04:34:17;;;;;;;16.20;9.30;;;;;;;3.49;100.00;96827.53;4994770;28;20095;-70
2023/12/20 04:36:42;;;;;;;16.55;9.98;;;;;;;3.51;100.00;96823.41;4995846;28;20085;-71
2023/12/20 04:39:08;;;;;;;15.50;9.63;;;;;;;3.44;100.00;96820.38;4988890;28;20054;-69
2023/12/20 04:41:33;;;;;;;18.38;10.05;;;;;;;3.42;100.00;96830.72;5001503;28;20056;-71
2023/12/20 04:43:59;;;;;;;17.17;9.40;;;;;;;3.42;100.00;96839.66;4993719;28;20064;-70
2023/12/20 04:46:24;;;;;;;18.25;10.30;;;;;;;3.39;100.00;96840.28;5001038;28;20050;-72
2023/12/20 04:48:49;;;;;;;15.90;10.57;;;;;;;3.33;100.00;96846.97;5000226;28;20046;-71
2023/12/20 04:51:15;;;;;;;18.75;10.13;;;;;;;3.39;100.00;96855.72;4992311;28;20038;-70
2023/12/20 04:53:40;;;;;;;15.98;10.18;;;;;;;3.41;100.00;96848.88;4997618;28;20076;-70
2023/12/20 04:56:06;;;;;;;16.80;10.65;;;;;;;3.46;100.00;96853.34;4995418;28;20508;-69
2023/12/20 04:58:31;;;;;;;18.90;11.32;;;;;;;3.40;100.00;96854.59;5001612;28;20492;-71
2023/12/20 05:00:57;;;;;;;20.95;10.55;;;;;;;3.41;100.00;96862.41;4991163;28;20037;-70
2023/12/20 05:03:22;;;;;;;17.58;10.90;;;;;;;3.39;100.00;96859.22;4997372;28;20069;-70
2023/12/20 05:05:48;;;;;;;19.08;10.73;;;;;;;3.39;100.00;96864.66;5004258;28;20054;-70
2023/12/20 05:08:13;;;;;;;17.00;9.93;;;;;;;3.42;100.00;96876.75;4981145;28;20087;-70
2023/12/20 05:10:40;;;;;;;17.13;10.07;;;;;;;3.42;100.00;96871.34;4987368;28;20132;-69
2023/12/20 05:13:05;;;;;;;17.30;10.93;;;;;;;3.52;100.00;96870.25;4992453;28;20405;-70
2023/12/20 05:15:31;;;;;;;16.00;10.15;;;;;;;3.52;100.00;96876.44;5001566;28;20056;-70
2023/12/20 05:17:56;;;;;;;16.30;9.35;;;;;;;3.57;100.00;96872.81;5000652;28;20133;-69
2023/12/20 05:20:22;;;;;;;14.80;10.45;;;;;;;3.59;100.00;96870.56;4993802;28;20058;-72
2023/12/20 05:22:48;;;;;;;15.60;10.00;;;;;;;3.56;100.00;96879.31;5013075;28;20043;-72
2023/12/20 05:25:13;;;;;;;16.02;9.93;;;;;;;3.59;100.00;96873.28;5010561;28;20076;-71
2023/12/20 05:27:38;;;;;;;17.70;9.63;;;;;;;3.62;100.00;96870.75;5000694;28;20509;-70
2023/12/20 05:30:04;;;;;;;14.95;9.20;;;;;;;3.66;100.00;96872.81;4996029;28;20459;-71
2023/12/20 05:32:31;;;;;;;15.05;9.20;;;;;;;3.63;100.00;96879.66;4994510;28;20076;-69
2023/12/20 05:34:56;;;;;;;14.25;8.50;;;;;;;3.69;100.00;96875.69;5001135;28;20045;-72
2023/12/20 05:37:21;;;;;;;16.52;10.25;;;;;;;3.64;100.00;96878.56;4991616;28;20531;-70
2023/12/20 05:39:47;;;;;;;15.90;9.32;;;;;;;3.64;100.00;96882.06;5000471;28;20132;-69
2023/12/20 05:42:12;;;;;;;13.68;9.20;;;;;;;3.60;100.00;96886.53;4997078;28;20293;-71
2023/12/20 05:44:38;;;;;;;16.42;9.80;;;;;;;3.63;100.00;96896.69;5001331;28;20044;-70
2023/12/20 05:47:03;;;;;;;12.88;8.98;;;;;;;3.60;100.00;96904.66;4995377;28;20492;-72
2023/12/20 05:49:29;;;;;;;15.52;9.20;;;;;;;3.63;100.00;96904.81;4999698;28;20385;-70
2023/12/20 05:51:54;;;;;;;13.30;8.50;;;;;;;3.65;100.00;96901.81;4996857;28;20146;-71
2023/12/20 05:54:19;;;;;;;14.40;9.65;;;;;;;3.62;100.00;96905.16;4994576;28;20084;-71
2023/12/20 05:56:45;;;;;;;15.30;9.85;;;;;;;3.67;100.00;96909.63;5002425;28;20532;-70
2023/12/20 05:59:10;;;;;;;13.63;9.10;;;;;;;3.63;100.00;96912.94;4995632;28;20074;-71
2023/12/20 06:01:35;;;;;;;13.98;8.55;;;;;;;3.67;100.00;96910.41;5000127;28;20046;-71
2023/12/20 06:04:01;;;;;;;13.07;8.73;;;;;;;3.66;100.00;96908.81;5005617;28;20145;-71
2023/12/20 06:06:26;;;;;;;11.32;8.13;;;;;;;3.71;100.00;96902.44;5002757;28;20056;-70
2023/12/20 06:08:51;;;;;;;14.95;9.10;;;;;;;3.70;100.00;96907.06;4998744;28;20109;-71
2023/12/20 06:11:17;;;;;;;10.40;7.70;;;;;;;3.69;100.00;96910.91;5003053;28;20065;-70
2023/12/20 06:13:42;;;;;;;14.15;7.50;;;;;;;3.71;100.00;96914.09;4980209;28;20054;-72
2023/12/20 06:16:08;;;;;;;12.48;7.88;;;;;;;3.71;100.00;96916.00;4996232;28;20183;-71
2023/12/20 06:18:33;;;;;;;11.32;7.20;;;;;;;3.71;100.00;96916.00;4986569;28;20452;-72
2023/12/20 06:20:58;;;;;;;13.02;7.68;;;;;;;3.76;100.00;96915.84;4997468;28;20655;-71
2023/12/20 06:23:24;;;;;;;9.90;7.10;;;;;;;3.71;100.00;96907.84;4996215;28;20578;-71
2023/12/20 06:25:50;;;;;;;11.50;7.53;;;;;;;3.74;100.00;96913.44;4991840;28;20564;-71
2023/12/20 06:28:15;;;;;;;10.75;7.32;;;;;;;3.70;100.00;96909.78;4993525;28;20133;-70
2023/12/20 06:30:40;;;;;;;9.68;6.80;;;;;;;3.72;100.00;96921.09;5001502;28;20554;-70
2023/12/20 06:33:06;;;;;;;9.35;6.65;;;;;;;3.73;100.00;96930.03;4984440;28;20050;-71
2023/12/20 06:35:32;;;;;;;10.88;6.68;;;;;;;3.71;100.00;96935.78;4996577;28;20050;-71
2023/12/20 06:37:58;;;;;;;10.10;7.22;;;;;;;3.72;100.00;96929.22;4988704;28;20070;-71
2023/12/20 06:40:23;;;;;;;9.90;6.25;;;;;;;3.75;100.00;96939.44;4995816;28;20049;-69
2023/12/20 06:42:48;;;;;;;12.40;6.70;;;;;;;3.80;100.00;96938.50;5003615;28;20559;-70
2023/12/20 06:45:14;;;;;;;9.80;6.65;;;;;;;3.78;100.00;96941.53;4996383;28;20046;-69
2023/12/20 06:47:39;;;;;;;9.27;6.00;;;;;;;3.78;100.00;96941.53;4996467;28;20076;-69
2023/12/20 06:50:05;;;;;;;10.70;6.63;;;;;;;3.80;100.00;96943.91;4988876;28;20049;-68
2023/12/20 06:52:31;;;;;;;13.13;6.93;;;;;;;3.79;100.00;96936.88;4995944;28;20046;-72
2023/12/20 06:54:56;;;;;;;11.23;6.40;;;;;;;3.82;100.00;96942.47;5000495;28;20037;-71
2023/12/20 06:57:21;;;;;;;9.48;6.07;;;;;;;3.82;100.00;96938.97;4994046;28;20388;-72
2023/12/20 06:59:47;;;;;;;9.63;6.72;;;;;;;3.81;100.00;96946.28;4992309;28;20046;-71
2023/12/20 07:02:12;;;;;;;10.70;7.07;;;;;;;4.01;100.00;96949.50;4994081;28;20042;-71
2023/12/20 07:04:41;;;;;;;11.57;6.97;;;;;;;4.06;100.00;96948.56;4999418;28;20050;-71
2023/12/20 07:07:07;;;;;;;10.18;6.50;;;;;;;4.17;100.00;96947.91;4997041;28;20558;-70
2023/12/20 07:09:33;;;;;;;12.82;7.72;;;;;;;4.19;100.00;96951.09;4994448;28;20136;-70
2023/12/20 07:11:58;;;;;;;10.20;7.07;;;;;;;4.07;100.00;96952.84;4995930;28;20054;-74
2023/12/20 07:14:24;;;;;;;14.15;7.93;;;;;;;4.10;100.00;96957.66;4996331;28;20041;-72
2023/12/20 07:16:49;;;;;;;11.30;7.38;;;;;;;4.05;100.00;96958.59;5000245;28;20058;-74
2023/12/20 07:19:14;;;;;;;13.45;7.95;;;;;;;4.06;100.00;96952.06;4976795;28;20041;-73
2023/12/20 07:21:40;;;;;;;10.73;7.60;;;;;;;4.04;100.00;96965.13;4997633;28;20049;-74
2023/12/20 07:24:05;;;;;;;13.40;8.85;;;;;;;4.01;100.00;96960.34;4991592;28;20042;-71
2023/12/20 07:26:30;;;;;;;15.50;8.85;;;;;;;3.99;100.00;96960.66;4995951;28;20577;-70
2023/12/20 07:28:56;;;;;;;11.35;8.40;;;;;;;4.00;100.00;96956.84;4989036;28;20152;-72
2023/12/20 07:31:21;;;;;;;13.63;8.25;;;;;;;3.96;100.00;96965.91;4996650;28;20841;-72
2023/12/20 07:33:47;;;;;;;35.50;20.33;;;;;;;3.91;100.00;96966.88;5005107;28;20057;-73
2023/12/20 07:36:12;;;;;;;15.77;9.57;;;;;;;3.99;100.00;96968.00;5002733;28;20054;-72
2023/12/20 07:38:38;;;;;;;17.20;11.38;;;;;;;3.97;100.00;96971.03;5004457;28;20088;-73
2023/12/20 07:41:03;;;;;;;15.65;9.18;;;;;;;3.95;100.00;96967.03;4992492;28;20053;-70
2023/12/20 07:43:29;;;;;;;12.60;8.85;;;;;;;3.94;100.00;96971.69;5000150;28;20053;-71
2023/12/20 07:45:54;;;;;;;15.50;9.25;;;;;;;3.97;100.00;96981.06;4998564;28;20076;-73
2023/12/20 07:48:19;;;;;;;15.23;10.35;;;;;;;3.96;100.00;96983.00;4994334;28;20100;-74
2023/12/20 07:50:45;;;;;;;16.05;9.52;;;;;;;3.92;100.00;96994.75;4996473;28;20042;-73
2023/12/20 07:53:10;;;;;;;15.73;9.95;;;;;;;3.96;100.00;96993.00;4993445;28;20046;-72
2023/12/20 07:55:36;;;;;;;18.52;10.30;;;;;;;3.98;100.00;96991.59;4987642;28;20054;-72
2023/12/20 07:58:02;;;;;;;14.45;9.85;;;;;;;4.00;100.00;96994.00;4984713;28;20092;-72
2023/12/20 08:00:27;;;;;;;16.33;10.60;;;;;;;3.97;100.00;96991.91;4997755;28;20081;-74
2023/12/20 08:02:53;;;;;;;16.58;10.27;;;;;;;3.98;100.00;96991.59;4991109;28;20115;-74
2023/12/20 08:05:18;;;;;;;17.27;10.95;;;;;;;3.97;100.00;97000.03;4996194;28;20068;-73
2023/12/20 08:07:43;;;;;;;16.48;10.38;;;;;;;4.04;100.00;96997.66;4988630;28;20053;-73
2023/12/20 08:10:09;;;;;;;16.83;10.70;;;;;;;4.18;100.00;97000.25;4997419;28;20041;-73
2023/12/20 08:12:34;;;;;;;16.17;10.48;;;;;;;4.06;100.00;97011.69;4989968;28;20054;-72
2023/12/20 08:15:01;;;;;;;14.60;10.30;;;;;;;4.12;100.00;97006.91;5000609;28;20049;-72
2023/12/20 08:17:26;;;;;;;15.95;10.52;;;;;;;4.11;100.00;97005.34;4986230;28;20060;-71
2023/12/20 08:19:52;;;;;;;18.45;11.25;;;;;;;4.09;100.00;97015.66;5002650;28;20794;-74
2023/12/20 08:22:17;;;;;;;14.75;10.23;;;;;;;4.14;100.00;97002.78;4998600;28;20046;-72
2023/12/20 08:24:42;;;;;;;17.10;10.88;;;;;;;4.14;100.00;97001.97;5002127;28;20054;-72
2023/12/20 08:27:09;;;;;;;16.10;10.60;;;;;;;4.21;100.00;96997.69;4996040;28;20515;-73
2023/12/20 08:29:35;;;;;;;17.67;10.80;;;;;;;4.31;100.00;97012.84;5005617;28;20122;-73
2023/12/20 08:32:00;;;;;;;16.77;11.10;;;;;;;4.31;100.00;97003.91;5019135;28;20069;-73
2023/12/20 08:34:26;;;;;;;15.75;10.90;;;;;;;4.28;100.00;97007.25;4997037;28;20072;-73
2023/12/20 08:36:51;;;;;;;16.52;10.35;;;;;;;4.26;100.00;97009.50;5002073;28;20053;-73
2023/12/20 08:39:17;;;;;;;15.32;10.40;;;;;;;4.31;100.00;97010.13;5016293;28;20073;-73
2023/12/20 08:41:43;;;;;;;15.75;10.23;;;;;;;4.44;100.00;97000.25;5001542;28;20049;-72
2023/12/20 08:44:09;;;;;;;13.95;10.13;;;;;;;4.38;100.00;97009.66;4996546;28;20128;-72
2023/12/20 08:46:35;;;;;;;16.25;10.18;;;;;;;4.34;100.00;97011.41;4990287;28;20038;-73
2023/12/20 08:49:01;;;;;;;17.08;10.43;;;;;;;4.29;100.00;97015.06;4984723;28;20042;-73
2023/12/20 08:51:26;;;;;;;18.55;11.48;;;;;;;4.32;100.00;97003.59;4995616;28;20451;-73
2023/12/20 08:53:52;;;;;;;17.60;10.98;;;;;;;4.34;100.00;97011.41;4997241;28;20046;-73
2023/12/20 08:56:18;;;;;;;16.02;10.70;;;;;;;4.32;100.00;97006.31;4988772;28;20086;-73
2023/12/20 08:58:44;;;;;;;16.60;11.10;;;;;;;4.34;100.00;97009.50;5000695;28;20046;-73
2023/12/20 09:01:10;;;;;;;16.42;10.38;;;;;;;4.46;100.00;96997.22;4988252;28;20065;-74
2023/12/20 09:03:35;;;;;;;15.25;10.70;;;;;;;4.42;100.00;96994.34;5002713;28;20177;-73
2023/12/20 09:06:00;;;;;;;16.27;10.10;;;;;;;4.65;100.00;96986.03;5002307;28;20052;-72
2023/12/20 09:08:26;;;;;;;14.90;10.68;;;;;;;4.67;100.00;96979.16;4989847;28;20038;-73
2023/12/20 09:10:51;;;;;;;13.82;9.32;;;;;;;4.59;100.00;96983.50;4987100;28;20468;-72
2023/12/20 09:13:17;;;;;;;12.38;8.48;;;;;;;4.63;100.00;96985.53;5002252;28;20049;-73
2023/12/20 09:15:43;;;;;;;12.63;8.73;;;;;;;4.68;100.00;97001.66;4991233;28;20408;-72
2023/12/20 09:18:08;;;;;;;14.82;9.45;;;;;;;4.71;100.00;97001.81;4988491;28;20400;-72
2023/12/20 09:20:34;;;;;;;12.95;8.55;;;;;;;4.67;100.00;96992.72;4998344;28;20094;-72
2023/12/20 09:22:59;;;;;;;13.60;9.27;;;;;;;4.68;100.00;97005.19;5001624;28;20046;-72
2023/12/20 09:25:25;;;;;;;12.35;8.90;;;;;;;4.69;100.00;97006.00;4987953;28;20495;-72
2023/12/20 09:27:52;;;;;;;11.48;8.20;;;;;;;4.70;100.00;97005.66;5001243;28;20042;-73
2023/12/20 09:30:18;;;;;;;14.13;8.20;;;;;;;4.73;100.00;97005.00;4994490;28;20088;-72
2023/12/20 09:32:44;;;;;;;11.55;8.10;;;;;;;4.78;100.00;97004.84;4999788;28;20037;-73
2023/12/20 09:35:10;;;;;;;12.85;9.23;;;;;;;4.83;100.00;96997.69;4997204;28;20046;-75
2023/12/20 09:37:35;;;;;;;12.23;8.48;;;;;;;4.78;100.00;97004.06;5002341;28;20565;-73
2023/12/20 09:40:01;;;;;;;10.50;8.82;;;;;;;4.88;100.00;96994.78;5009690;28;20138;-73
2023/12/20 09:42:50;;;;;;;10.90;7.32;;;;;;;4.80;100.00;96999.09;4987746;28;20041;-72
2023/12/20 09:45:20;;;;;;;11.35;7.60;;;;;;;4.79;100.00;96997.53;4994718;28;20096;-75
2023/12/20 09:47:45;;;;;;;21.20;13.00;;;;;;;4.82;100.00;97002.28;5011758;28;20054;-74
2023/12/20 09:50:12;;;;;;;17.10;9.93;;;;;;;4.82;100.00;97002.28;5000739;28;20050;-74
2023/12/20 09:52:39;;;;;;;9.73;6.88;;;;;;;4.83;100.00;97011.25;5004384;28;20038;-75
2023/12/20 09:55:07;;;;;;;10.23;7.28;;;;;;;4.82;100.00;97004.22;4990024;28;20157;-72
2023/12/20 09:57:33;;;;;;;10.93;7.40;;;;;;;4.79;100.00;97002.94;4981229;28;20072;-75
2023/12/20 09:59:59;;;;;;;10.15;6.68;;;;;;;4.82;100.00;97004.22;4990018;28;20045;-73
2023/12/20 10:02:29;;;;;;;9.27;6.78;;;;;;;4.89;100.00;96989.03;5011176;28;20046;-73
2023/12/20 10:04:55;;;;;;;9.65;6.57;;;;;;;5.02;100.00;96987.25;5000950;28;20037;-72
2023/12/20 10:07:22;;;;;;;12.05;7.50;;;;;;;4.96;100.00;96991.25;4996344;28;20481;-72
2023/12/20 10:09:48;;;;;;;10.55;6.43;;;;;;;4.93;100.00;96989.19;5001325;28;20201;-73
2023/12/20 10:12:14;;;;;;;8.93;6.78;;;;;;;4.91;100.00;96986.00;4998487;28;20052;-72
2023/12/20 10:14:39;;;;;;;9.02;6.68;;;;;;;4.90;100.00;96970.84;4998477;28;20125;-73
2023/12/20 10:17:05;;;;;;;10.35;6.95;;;;;;;4.93;100.00;96981.84;4997407;28;20050;-72
2023/12/20 10:19:32;;;;;;;9.82;6.78;;;;;;;5.01;100.00;96969.38;4985598;28;20049;-74
2023/12/20 10:22:04;;;;;;;7.55;5.82;;;;;;;5.09;100.00;96965.81;5013692;28;21031;-73
2023/12/20 10:24:29;;;;;;;6.72;5.68;;;;;;;5.35;100.00;96959.53;4997839;28;20049;-73
2023/12/20 10:27:05;;;;;;;7.82;5.63;;;;;;;5.34;100.00;96947.84;4993832;28;20085;-73
2023/12/20 10:29:39;;;;;;;6.60;4.80;;;;;;;5.44;100.00;96951.31;4986951;28;20042;-73
2023/12/20 10:32:27;;;;;;;8.57;6.13;;;;;;;5.51;100.00;96933.41;4985488;28;20042;-72
2023/12/20 10:34:54;;;;;;;7.80;5.43;;;;;;;5.72;100.00;96938.84;4989693;28;20033;-75
2023/12/20 10:37:20;;;;;;;8.35;4.80;;;;;;;6.30;100.00;96943.75;4996709;28;20409;-72
2023/12/20 10:39:51;;;;;;;8.57;5.10;;;;;;;6.75;100.00;96936.81;5001206;28;20049;-73
2023/12/20 10:42:20;;;;;;;5.05;4.13;;;;;;;7.16;100.00;96935.88;5002426;28;20052;-72
2023/12/20 10:44:46;;;;;;;5.13;3.35;;;;;;;7.78;100.00;96928.53;5001188;28;20567;-74
2023/12/20 10:47:13;;;;;;;4.80;3.20;;;;;;;8.30;100.00;96923.41;4993566;28;20085;-73
2023/12/20 10:49:40;;;;;;;3.38;2.42;;;;;;;8.52;100.00;96917.44;4996864;28;20405;-75
2023/12/20 10:52:07;;;;;;;3.85;2.55;;;;;;;8.70;100.00;96917.16;4988907;28;20137;-72
2023/12/20 10:54:33;;;;;;;3.10;2.22;;;;;;;7.97;100.00;96919.72;5000981;28;20137;-73
2023/12/20 10:56:58;;;;;;;3.58;2.30;;;;;;;7.64;100.00;96915.22;5000942;28;20125;-73
2023/12/20 10:59:24;;;;;;;3.08;2.30;;;;;;;7.21;100.00;96911.13;4995545;28;20140;-75
2023/12/20 11:01:51;;;;;;;3.33;2.40;;;;;;;6.97;100.00;96922.81;5009118;28;20049;-74
2023/12/20 11:04:25;;;;;;;5.55;2.97;;;;;;;6.95;100.00;96916.09;4993614;28;20048;-74
2023/12/20 11:07:02;;;;;;;4.20;2.50;;;;;;;6.83;100.00;96916.88;4971574;28;20049;-73
2023/12/20 11:09:43;;;;;;;3.40;2.80;;;;;;;6.65;100.00;96914.31;5007531;28;20050;-73
2023/12/20 11:12:33;;;;;;;3.70;2.38;;;;;;;6.70;100.00;96908.66;4991708;28;20042;-74
2023/12/20 11:15:03;;;;;;;3.53;2.47;;;;;;;6.87;100.00;96907.69;4985724;28;20035;-75
2023/12/20 11:17:29;;;;;;;3.70;2.47;;;;;;;6.79;100.00;96905.88;5010430;28;20039;-72
2023/12/20 11:19:57;;;;;;;3.67;2.38;;;;;;;6.68;100.00;96905.50;4992768;28;20446;-75
2023/12/20 11:22:29;;;;;;;3.30;1.98;;;;;;;6.76;100.00;96900.28;4996273;28;20066;-73